Time;durP1;ratioP1;P1;durP2;ratioP2;P2;SDS_P1;SDS_P2;PMS_P1;PMS_P2;Temp;Humidity;BMP_temperature;BMP_pressure;BME280_temperature;BME280_humidity;BME280_pressure;Samples;Min_cycle;Max_cycle;Signal;HPM_P1;HPM_P2
2022/12/29 00:01:42;;;;;;;9.85;5.92;;;;;;;3.44;55.45;97253.47;1718343;80;25689;-74
2022/12/29 00:04:13;;;;;;;11.78;6.03;;;;;;;3.43;55.34;97258.47;1718516;80;25902;-72
2022/12/29 00:06:41;;;;;;;9.60;5.55;;;;;;;3.45;55.44;97240.46;1729384;80;28260;-72
2022/12/29 00:09:08;;;;;;;10.18;5.25;;;;;;;3.50;55.35;97250.94;1748444;79;25831;-72
2022/12/29 00:11:34;;;;;;;11.48;6.35;;;;;;;3.53;55.26;97256.44;1747402;79;25712;-72
2022/12/29 00:16:46;;;;;;;13.60;6.03;;;;;;;3.57;55.27;97255.94;1747720;79;25667;-73
2022/12/29 00:36:24;;;;;;;12.30;7.15;;;;;;;3.61;55.13;97249.77;1719148;83;25801;-73
2022/12/29 00:44:28;;;;;;;14.05;7.05;;;;;;;3.64;55.25;97253.41;1532246;93;25772;-73
2022/12/29 00:46:55;;;;;;;11.03;6.05;;;;;;;3.63;55.26;97247.73;1532267;93;28306;-73
2022/12/29 00:49:31;;;;;;;12.90;7.25;;;;;;;3.65;55.28;97248.90;1531874;93;25934;-75
2022/12/29 00:52:05;;;;;;;14.85;6.87;;;;;;;3.66;55.32;97246.06;1532175;93;25955;-72
2022/12/29 00:54:36;;;;;;;12.15;6.80;;;;;;;3.67;55.33;97243.73;1539524;93;25864;-72
2022/12/29 00:57:04;;;;;;;41.73;14.80;;;;;;;3.68;55.35;97245.89;1539918;93;25863;-73
2022/12/29 00:59:31;;;;;;;17.57;8.33;;;;;;;3.66;55.39;97240.72;1539916;93;27462;-73
2022/12/29 01:01:58;;;;;;;13.62;7.70;;;;;;;3.63;55.33;97232.55;1529665;93;25716;-72
2022/12/29 01:04:26;;;;;;;12.90;7.55;;;;;;;3.66;55.43;97236.72;1529876;93;25905;-72
2022/12/29 01:06:53;;;;;;;17.27;8.13;;;;;;;3.66;55.40;97230.55;1529797;93;25806;-73
2022/12/29 01:12:07;;;;;;;11.75;6.47;;;;;;;3.67;55.35;97235.72;1515152;94;28313;-73
2022/12/29 01:14:34;;;;;;;12.25;7.33;;;;;;;3.67;55.33;97234.38;1515372;94;25661;-73
2022/12/29 01:17:01;;;;;;;27.70;9.90;;;;;;;3.67;55.41;97240.22;1587182;90;26992;-73
2022/12/29 01:19:28;;;;;;;17.20;7.72;;;;;;;3.66;55.48;97244.73;1589739;90;25744;-73
2022/12/29 01:21:55;;;;;;;12.37;6.92;;;;;;;3.64;55.48;97238.72;1537792;92;25844;-72
2022/12/29 01:24:22;;;;;;;14.10;9.50;;;;;;;3.66;55.52;97250.06;1537701;93;27416;-73
2022/12/29 01:26:49;;;;;;;11.43;6.20;;;;;;;3.65;55.52;97244.89;1537550;93;25863;-74
2022/12/29 01:29:16;;;;;;;32.88;11.28;;;;;;;3.60;55.66;97250.77;1543279;91;25852;-74
2022/12/29 01:31:43;;;;;;;32.85;11.15;;;;;;;3.62;55.81;97248.77;1554773;91;25910;-72
2022/12/29 01:34:10;;;;;;;18.12;9.03;;;;;;;3.64;55.90;97256.08;1555042;91;25826;-75
2022/12/29 01:36:36;;;;;;;11.03;6.47;;;;;;;3.66;55.88;97251.91;1554986;91;26841;-74
2022/12/29 01:39:03;;;;;;;12.93;7.25;;;;;;;3.60;55.83;97248.09;1587394;88;25731;-73
2022/12/29 01:41:31;;;;;;;13.05;7.42;;;;;;;3.60;55.89;97238.76;1591712;88;25868;-75
2022/12/29 01:44:01;;;;;;;12.73;6.72;;;;;;;3.57;55.92;97237.76;1591667;88;25838;-75
2022/12/29 01:46:41;;;;;;;10.53;6.10;;;;;;;3.55;55.93;97233.92;1591688;88;25303;-72
2022/12/29 01:49:18;;;;;;;34.23;12.47;;;;;;;3.56;55.98;97225.41;1591786;88;27452;-74
2022/12/29 01:51:58;;;;;;;13.40;6.62;;;;;;;3.57;56.11;97223.91;1582745;88;25563;-74
2022/12/29 01:54:47;;;;;;;13.50;5.45;;;;;;;3.59;56.05;97221.08;1707099;81;25759;-72
2022/12/29 01:57:19;;;;;;;14.03;6.60;;;;;;;3.61;56.07;97218.57;1753113;81;25881;-72
2022/12/29 01:59:51;;;;;;;12.88;6.72;;;;;;;3.63;56.15;97207.70;1687661;84;25519;-72
2022/12/29 02:02:18;;;;;;;12.88;7.37;;;;;;;3.65;56.20;97203.02;1688139;84;28661;-72
2022/12/29 02:04:45;;;;;;;9.30;6.62;;;;;;;3.65;56.26;97203.02;1690775;84;25683;-73
2022/12/29 02:07:19;;;;;;;16.20;6.75;;;;;;;3.65;56.37;97207.02;1656311;84;36269;-71
2022/12/29 02:09:51;;;;;;;19.67;8.75;;;;;;;3.67;56.46;97210.86;1689960;84;26507;-73
2022/12/29 02:12:20;;;;;;;15.38;6.80;;;;;;;3.68;56.51;97200.02;1688955;84;25823;-72
2022/12/29 02:14:51;;;;;;;10.70;5.20;;;;;;;3.69;56.56;97211.52;1689134;84;27397;-73
2022/12/29 02:17:34;;;;;;;9.48;5.03;;;;;;;3.70;56.59;97210.02;1685604;84;25891;-74
2022/12/29 02:20:39;;;;;;;8.78;5.83;;;;;;;3.73;56.52;97212.35;1664319;86;25792;-72
2022/12/29 02:23:48;;;;;;;9.60;5.40;;;;;;;3.76;56.55;97207.98;1631949;87;25803;-72
2022/12/29 02:26:48;;;;;;;8.30;5.20;;;;;;;3.78;56.47;97204.63;1585401;90;26565;-75
2022/12/29 02:29:41;;;;;;;9.73;5.33;;;;;;;3.79;56.50;97194.29;1518943;94;27432;-73
2022/12/29 02:32:52;;;;;;;9.05;5.35;;;;;;;3.81;56.41;97198.95;1515903;94;25845;-72
2022/12/29 02:35:50;;;;;;;8.60;4.78;;;;;;;3.84;56.50;97197.28;1482907;96;25864;-72
2022/12/29 02:38:52;;;;;;;10.08;5.40;;;;;;;3.85;56.24;97200.78;1481040;96;26078;-72
2022/12/29 02:42:04;;;;;;;12.30;6.00;;;;;;;3.85;56.42;97198.12;1477567;96;26874;-72
2022/12/29 02:44:57;;;;;;;11.55;5.70;;;;;;;3.88;56.47;97211.09;1483155;96;27615;-73
2022/12/29 02:47:37;;;;;;;8.48;4.97;;;;;;;3.87;56.43;97202.25;1483232;95;25365;-75
2022/12/29 02:50:34;;;;;;;10.58;5.35;;;;;;;3.88;56.47;97195.07;1481938;95;25981;-72
2022/12/29 02:53:08;;;;;;;9.98;5.58;;;;;;;3.89;56.51;97198.07;1468342;96;26904;-73
2022/12/29 02:55:35;;;;;;;10.15;5.75;;;;;;;3.89;56.52;97202.91;1467070;96;26627;-73
2022/12/29 02:58:18;;;;;;;10.60;5.55;;;;;;;3.91;56.50;97204.91;1530010;92;27438;-73
2022/12/29 03:00:56;;;;;;;10.00;5.12;;;;;;;3.94;56.48;97207.74;1537835;92;25848;-71
2022/12/29 03:03:34;;;;;;;10.72;6.00;;;;;;;3.95;56.30;97207.57;1580045;90;25762;-75
2022/12/29 03:06:18;;;;;;;9.03;5.47;;;;;;;3.93;56.34;97196.22;1611052;87;26572;-72
2022/12/29 03:09:07;;;;;;;9.45;5.47;;;;;;;3.96;56.37;97200.39;1626112;88;25907;-73
2022/12/29 03:17:31;;;;;;;9.23;5.50;;;;;;;4.06;56.48;97170.78;1562724;91;25812;-73
2022/12/29 03:20:03;;;;;;;8.48;5.08;;;;;;;4.05;56.59;97177.13;1562885;91;25862;-75
2022/12/29 03:22:34;;;;;;;10.23;6.10;;;;;;;4.03;56.63;97165.79;1492864;96;25689;-72
2022/12/29 03:25:10;;;;;;;8.13;5.10;;;;;;;4.02;56.63;97172.14;1493014;96;27440;-72
2022/12/29 03:27:50;;;;;;;8.93;4.33;;;;;;;4.02;56.73;97158.28;1490890;94;25913;-74
2022/12/29 03:30:18;;;;;;;9.08;4.72;;;;;;;4.04;56.75;97139.41;1483966;95;25895;-75
2022/12/29 03:32:52;;;;;;;11.00;5.65;;;;;;;4.06;56.87;97158.77;1529970;91;26513;-71
2022/12/29 03:35:23;;;;;;;10.25;5.92;;;;;;;4.07;56.79;97126.55;1539229;91;25940;-75
2022/12/29 03:38:13;;;;;;;8.15;5.00;;;;;;;4.09;56.86;97149.91;1538630;91;27487;-72
2022/12/29 03:40:44;;;;;;;8.90;4.72;;;;;;;4.13;56.92;97153.03;1534017;93;25805;-73
2022/12/29 03:43:13;;;;;;;10.68;5.40;;;;;;;4.14;56.92;97140.84;1534795;93;25383;-75
2022/12/29 03:45:39;;;;;;;16.73;8.35;;;;;;;4.12;56.83;97136.17;1534739;93;25800;-73
2022/12/29 03:48:06;;;;;;;13.72;7.42;;;;;;;4.09;56.91;97132.54;1534907;93;25833;-74
2022/12/29 03:50:33;;;;;;;12.68;6.50;;;;;;;4.06;56.96;97128.05;1534907;93;27408;-72
2022/12/29 03:52:59;;;;;;;10.85;6.08;;;;;;;4.04;57.11;97145.58;1534627;93;25912;-74
2022/12/29 03:55:26;;;;;;;8.80;5.10;;;;;;;4.05;57.12;97138.41;1534722;93;25787;-73
2022/12/29 03:57:53;;;;;;;8.70;5.37;;;;;;;4.08;57.22;97140.73;1535001;93;25826;-72
2022/12/29 04:00:19;;;;;;;8.70;4.97;;;;;;;4.09;57.18;97141.06;1534935;93;25886;-72
2022/12/29 04:02:46;;;;;;;10.13;5.83;;;;;;;4.10;57.24;97132.04;1534955;93;26857;-74
2022/12/29 04:05:13;;;;;;;9.18;5.12;;;;;;;4.08;57.35;97134.05;1534716;93;25927;-74
2022/12/29 04:07:40;;;;;;;7.10;5.00;;;;;;;4.06;57.29;97112.86;1534661;93;25805;-75
2022/12/29 04:10:07;;;;;;;7.67;4.58;;;;;;;4.07;57.43;97113.19;1535749;93;25870;-72
2022/12/29 04:12:34;;;;;;;9.10;5.37;;;;;;;4.07;57.47;97107.02;1537062;93;25826;-74
2022/12/29 04:15:00;;;;;;;7.37;4.92;;;;;;;4.08;57.48;97108.67;1606571;87;27513;-75
2022/12/29 04:17:27;;;;;;;7.20;4.33;;;;;;;4.08;57.58;97118.02;1609627;87;25734;-73
2022/12/29 04:22:22;;;;;;;9.08;4.67;;;;;;;4.11;57.63;97125.66;1634115;87;25631;-75
2022/12/29 04:24:49;;;;;;;9.10;4.80;;;;;;;4.11;57.58;97125.66;1634313;87;25837;-72
2022/12/29 04:27:15;;;;;;;9.43;5.25;;;;;;;4.13;57.61;97124.98;1634131;87;27075;-73
2022/12/29 04:29:42;;;;;;;8.28;5.30;;;;;;;4.14;57.59;97123.98;1634172;87;25833;-74
2022/12/29 04:32:09;;;;;;;8.33;4.80;;;;;;;4.16;57.64;97129.98;1634141;87;25830;-75
2022/12/29 04:34:35;;;;;;;9.43;5.05;;;;;;;4.16;57.65;97137.48;1634121;87;26507;-73
2022/12/29 04:37:02;;;;;;;10.60;4.95;;;;;;;4.17;57.69;97137.81;1634186;87;25802;-75
2022/12/29 04:39:28;;;;;;;8.23;4.97;;;;;;;4.15;57.70;97137.66;1634014;87;27413;-73
2022/12/29 04:41:55;;;;;;;9.40;5.28;;;;;;;4.15;57.73;97141.67;1634159;87;25821;-72
2022/12/29 04:44:22;;;;;;;7.47;4.60;;;;;;;4.12;57.81;97130.00;1654791;84;26254;-73
2022/12/29 04:46:48;;;;;;;9.13;5.05;;;;;;;4.11;57.86;97122.98;1666589;84;25918;-72
2022/12/29 04:49:15;;;;;;;8.43;5.20;;;;;;;4.09;57.95;97130.38;1666806;86;25807;-73
2022/12/29 04:51:42;;;;;;;8.48;4.87;;;;;;;4.05;58.08;97146.42;1666644;86;27391;-73
2022/12/29 04:54:08;;;;;;;10.40;4.78;;;;;;;4.03;58.11;97148.42;1666623;86;25832;-73
2022/12/29 04:56:35;;;;;;;8.28;4.95;;;;;;;4.02;58.27;97140.92;1666703;86;25854;-72
2022/12/29 04:59:01;;;;;;;7.47;4.95;;;;;;;4.00;58.35;97133.58;1666769;86;25736;-73
2022/12/29 05:01:28;;;;;;;8.23;4.62;;;;;;;4.02;58.33;97140.08;1666590;86;25826;-74
2022/12/29 05:03:55;;;;;;;8.38;4.62;;;;;;;4.05;58.34;97136.56;1666775;86;27376;-73
2022/12/29 05:06:21;;;;;;;8.03;4.97;;;;;;;4.02;58.43;97132.08;1666700;86;25296;-75
2022/12/29 05:08:48;;;;;;;10.93;5.50;;;;;;;3.97;58.39;97124.61;1666636;86;25800;-73
2022/12/29 05:11:15;;;;;;;8.65;5.17;;;;;;;3.96;58.42;97114.94;1666675;84;26442;-72
2022/12/29 05:13:41;;;;;;;7.35;5.33;;;;;;;3.98;58.48;97116.39;1666420;86;25336;-74
2022/12/29 05:16:08;;;;;;;10.40;5.28;;;;;;;3.98;58.55;97123.07;1666436;86;27457;-72
2022/12/29 05:18:34;;;;;;;10.18;4.78;;;;;;;4.00;58.61;97113.55;1666432;86;25913;-75
2022/12/29 05:21:01;;;;;;;7.90;4.50;;;;;;;4.00;58.63;97122.90;1665907;86;25795;-73
2022/12/29 05:23:28;;;;;;;9.98;5.33;;;;;;;3.99;58.69;97123.41;1666611;84;25771;-73
2022/12/29 05:25:54;;;;;;;8.40;4.90;;;;;;;3.96;58.72;97125.61;1723819;79;25656;-72
2022/12/29 05:28:21;;;;;;;8.33;4.75;;;;;;;3.95;58.75;97110.09;1794585;79;28239;-75
2022/12/29 05:30:51;;;;;;;8.60;5.10;;;;;;;4.01;58.84;97109.04;1790357;79;25715;-74
2022/12/29 05:33:19;;;;;;;8.50;4.75;;;;;;;4.01;58.87;97107.20;1795747;79;25676;-75
2022/12/29 05:35:46;;;;;;;10.25;5.30;;;;;;;4.02;58.89;97108.87;1790509;79;26545;-73
2022/12/29 05:38:13;;;;;;;7.50;4.80;;;;;;;4.05;58.92;97107.69;1794796;79;25784;-72
2022/12/29 05:40:40;;;;;;;7.72;4.75;;;;;;;4.06;59.06;97105.34;1791491;79;27439;-73
2022/12/29 05:43:06;;;;;;;9.63;4.97;;;;;;;4.13;59.16;97102.27;1793603;79;25484;-75
2022/12/29 05:45:33;;;;;;;8.48;4.78;;;;;;;4.16;59.18;97099.25;1794979;79;25658;-75
2022/12/29 05:47:59;;;;;;;9.40;4.65;;;;;;;4.18;59.25;97095.91;1753955;79;26453;-75
2022/12/29 05:50:26;;;;;;;11.28;5.00;;;;;;;4.20;59.35;97102.73;1776857;79;25695;-74
2022/12/29 05:52:53;;;;;;;7.08;4.22;;;;;;;4.23;59.41;97104.20;1775716;79;27369;-73
2022/12/29 05:55:20;;;;;;;6.35;4.42;;;;;;;4.26;59.40;97110.53;1747141;79;25876;-75
2022/12/29 05:57:46;;;;;;;7.87;4.12;;;;;;;4.29;59.45;97104.33;1748561;79;25683;-74
2022/12/29 06:00:15;;;;;;;9.30;4.10;;;;;;;4.30;59.47;97107.84;1732953;79;25673;-72
2022/12/29 06:02:41;;;;;;;7.00;3.90;;;;;;;4.31;59.61;97096.14;1732949;79;25740;-73
2022/12/29 06:05:09;;;;;;;8.80;4.08;;;;;;;4.37;59.72;97096.73;1763427;79;28327;-73
2022/12/29 06:07:36;;;;;;;5.37;3.85;;;;;;;4.44;59.72;97087.52;1732824;79;25789;-73
2022/12/29 06:10:04;;;;;;;8.38;4.33;;;;;;;4.53;59.74;97087.25;1765404;79;25772;-73
2022/12/29 06:12:31;;;;;;;5.53;4.00;;;;;;;4.60;59.74;97086.01;1754353;79;25754;-73
2022/12/29 06:14:57;;;;;;;7.45;4.55;;;;;;;4.61;59.71;97089.84;1754669;79;25719;-73
2022/12/29 06:17:24;;;;;;;8.53;4.83;;;;;;;4.60;59.59;97093.52;1754478;79;27433;-74
2022/12/29 06:19:51;;;;;;;7.22;4.70;;;;;;;4.57;59.68;97089.90;1754496;79;25748;-74
2022/12/29 06:22:18;;;;;;;12.37;5.78;;;;;;;4.56;59.75;97086.90;1754682;79;26467;-72
2022/12/29 06:24:44;;;;;;;8.20;4.70;;;;;;;4.55;59.78;97093.25;1754499;79;25649;-72
2022/12/29 06:27:11;;;;;;;9.33;4.92;;;;;;;4.52;59.79;97100.29;1764460;79;25730;-74
2022/12/29 06:29:39;;;;;;;10.23;5.08;;;;;;;4.52;59.87;97091.44;1754569;79;27414;-73
2022/12/29 06:32:06;;;;;;;7.40;4.50;;;;;;;4.52;59.90;97105.64;1767376;79;25663;-72
2022/12/29 06:34:33;;;;;;;7.45;4.55;;;;;;;4.53;59.95;97107.30;1776713;79;25811;-73
2022/12/29 06:37:00;;;;;;;9.38;4.97;;;;;;;4.52;59.98;97113.66;1781691;79;25629;-73
2022/12/29 06:39:27;;;;;;;7.87;4.97;;;;;;;4.52;60.02;97119.50;1773811;79;25465;-74
2022/12/29 06:41:55;;;;;;;8.25;5.12;;;;;;;4.52;60.06;97120.84;1773634;79;28217;-72
2022/12/29 06:44:22;;;;;;;8.08;4.97;;;;;;;4.50;60.13;97122.86;1776997;78;26243;-75
2022/12/29 06:46:49;;;;;;;11.30;5.90;;;;;;;4.49;60.15;97126.03;1768784;79;25739;-73
2022/12/29 06:49:15;;;;;;;8.93;5.53;;;;;;;4.44;60.18;97132.95;1750379;79;25775;-73
2022/12/29 06:51:42;;;;;;;11.45;6.28;;;;;;;4.38;60.21;97139.83;1754392;79;25829;-72
2022/12/29 06:54:09;;;;;;;7.90;5.60;;;;;;;4.34;60.43;97130.52;1754571;79;27428;-75
2022/12/29 06:56:35;;;;;;;10.43;6.17;;;;;;;4.41;60.55;97142.15;1753998;79;25726;-73
2022/12/29 06:59:03;;;;;;;13.13;6.70;;;;;;;4.43;60.54;97144.14;1754507;79;25700;-74
2022/12/29 07:01:29;;;;;;;9.53;5.87;;;;;;;4.39;60.52;97148.17;1754390;79;25746;-73
2022/12/29 07:03:57;;;;;;;13.15;6.50;;;;;;;4.34;60.59;97143.38;1754578;79;25707;-73
2022/12/29 07:06:24;;;;;;;11.83;6.87;;;;;;;4.33;60.63;97143.56;1762503;79;27397;-75
2022/12/29 07:08:50;;;;;;;12.00;6.80;;;;;;;4.39;60.61;97148.17;1754348;79;25242;-73
2022/12/29 07:11:17;;;;;;;14.07;7.35;;;;;;;4.43;60.61;97145.98;1744517;79;25748;-73
2022/12/29 07:13:44;;;;;;;11.63;6.78;;;;;;;4.43;60.56;97142.80;1732810;79;25822;-72
2022/12/29 07:16:10;;;;;;;12.07;6.90;;;;;;;4.45;60.55;97143.97;1763960;79;25640;-75
2022/12/29 07:18:37;;;;;;;11.30;6.95;;;;;;;4.45;60.49;97143.46;1757379;79;28002;-73
2022/12/29 07:21:05;;;;;;;13.18;7.37;;;;;;;4.47;60.49;97145.96;1745535;79;25791;-75
2022/12/29 07:23:31;;;;;;;13.05;7.42;;;;;;;4.47;60.52;97148.09;1755875;79;25703;-73
2022/12/29 07:26:08;;;;;;;12.55;6.55;;;;;;;4.46;60.53;97149.14;1732888;79;25671;-73
2022/12/29 07:28:37;;;;;;;12.63;7.42;;;;;;;4.44;60.54;97137.79;1721862;80;25765;-74
2022/12/29 07:31:05;;;;;;;10.32;7.15;;;;;;;4.46;60.55;97133.10;1745798;79;27615;-73
2022/12/29 07:33:33;;;;;;;11.85;7.65;;;;;;;4.48;60.60;97133.73;1759238;79;25716;-73
2022/12/29 07:35:59;;;;;;;14.15;6.87;;;;;;;4.50;60.57;97129.03;1732947;79;25258;-73
2022/12/29 07:38:26;;;;;;;11.30;7.15;;;;;;;4.52;60.60;97128.36;1742906;79;26433;-73
2022/12/29 07:40:57;;;;;;;12.58;6.85;;;;;;;4.54;60.59;97126.34;1753300;79;25780;-73
2022/12/29 07:43:24;;;;;;;10.23;7.07;;;;;;;4.58;60.62;97134.34;1666927;82;27461;-74
2022/12/29 07:45:51;;;;;;;11.38;7.12;;;;;;;4.57;60.59;97134.00;1680452;82;26161;-72
2022/12/29 07:48:18;;;;;;;10.13;6.70;;;;;;;4.58;60.60;97142.36;1675027;82;25793;-75
2022/12/29 07:50:44;;;;;;;10.43;6.50;;;;;;;4.62;60.64;97135.61;1695124;82;26316;-72
2022/12/29 07:53:11;;;;;;;10.48;6.35;;;;;;;4.67;60.62;97135.91;1691110;82;25785;-75
2022/12/29 07:55:38;;;;;;;12.85;7.55;;;;;;;4.74;60.63;97136.52;1667242;82;27437;-73
2022/12/29 07:58:04;;;;;;;15.20;8.48;;;;;;;4.77;60.60;97128.14;1667174;82;25813;-73
2022/12/29 08:00:31;;;;;;;9.30;6.08;;;;;;;4.81;60.60;97123.59;1677327;82;25686;-73
2022/12/29 08:02:58;;;;;;;15.85;7.67;;;;;;;4.87;60.57;97126.03;1695190;82;25817;-73
2022/12/29 08:05:25;;;;;;;11.85;6.60;;;;;;;4.97;60.56;97129.27;1687196;82;25773;-73
2022/12/29 08:07:52;;;;;;;16.97;9.38;;;;;;;5.01;60.60;97128.73;1667161;82;27377;-75
2022/12/29 08:10:19;;;;;;;12.30;6.85;;;;;;;5.07;60.65;97131.19;1667127;82;25817;-73
2022/12/29 08:12:46;;;;;;;10.82;6.58;;;;;;;5.08;60.59;97132.82;1686386;82;25892;-73
2022/12/29 08:15:12;;;;;;;11.08;7.42;;;;;;;5.14;60.72;97129.43;1701455;82;26492;-73
2022/12/29 08:17:39;;;;;;;9.48;6.00;;;;;;;5.21;60.61;97132.19;1701494;82;25727;-72
2022/12/29 08:20:08;;;;;;;11.50;6.53;;;;;;;5.25;60.59;97126.29;1701390;82;27379;-73
2022/12/29 08:22:34;;;;;;;11.85;6.35;;;;;;;5.32;60.57;97131.72;1701343;82;25847;-73
2022/12/29 08:25:01;;;;;;;12.15;7.15;;;;;;;5.40;60.58;97126.30;1701533;82;25467;-73
2022/12/29 08:27:28;;;;;;;12.20;6.65;;;;;;;5.50;60.50;97134.86;1701399;82;25893;-73
2022/12/29 08:29:55;;;;;;;11.35;6.47;;;;;;;5.60;60.42;97127.87;1701461;82;26219;-73
2022/12/29 08:32:21;;;;;;;14.23;7.35;;;;;;;5.62;60.31;97128.52;1701416;82;27369;-73
2022/12/29 08:34:48;;;;;;;14.68;7.90;;;;;;;5.65;60.20;97120.13;1701319;82;25820;-72
2022/12/29 08:37:15;;;;;;;14.20;7.05;;;;;;;5.71;60.19;97124.72;1701521;82;25720;-74
2022/12/29 08:39:41;;;;;;;12.68;7.45;;;;;;;5.77;60.12;97125.32;1711512;82;25873;-75
2022/12/29 08:42:08;;;;;;;12.10;7.35;;;;;;;5.88;60.04;97119.98;1738383;81;25651;-73
2022/12/29 08:44:34;;;;;;;12.50;7.45;;;;;;;5.97;59.96;97125.06;1717813;81;27380;-73
2022/12/29 08:47:01;;;;;;;12.07;7.40;;;;;;;6.04;59.86;97113.06;1726658;81;25654;-73
2022/12/29 08:49:28;;;;;;;14.10;7.72;;;;;;;6.09;59.80;97102.11;1730543;81;25694;-73
2022/12/29 08:51:54;;;;;;;14.53;7.22;;;;;;;6.21;59.66;97100.26;1738848;81;25791;-73
2022/12/29 08:54:21;;;;;;;11.10;6.90;;;;;;;6.30;59.63;97087.04;1738965;80;25666;-73
2022/12/29 08:56:48;;;;;;;10.98;6.87;;;;;;;6.44;59.48;97100.89;1738765;80;28284;-73
2022/12/29 08:59:14;;;;;;;11.43;7.05;;;;;;;6.64;59.41;97089.01;1738559;80;25432;-73
2022/12/29 09:01:41;;;;;;;11.93;7.08;;;;;;;6.78;59.11;97098.28;1738646;81;26335;-74
2022/12/29 09:04:08;;;;;;;10.60;7.10;;;;;;;6.88;58.79;97096.08;1738257;80;25681;-73
2022/12/29 09:06:35;;;;;;;11.53;7.42;;;;;;;6.95;58.64;97088.09;1738614;80;25712;-74
2022/12/29 09:09:02;;;;;;;12.30;7.20;;;;;;;6.94;58.38;97100.36;1738710;80;28149;-72
2022/12/29 09:11:30;;;;;;;11.78;6.58;;;;;;;6.91;58.15;97099.41;1749683;80;25870;-73
2022/12/29 09:13:56;;;;;;;11.30;6.35;;;;;;;6.91;58.06;97094.03;1774058;79;25687;-75
2022/12/29 09:16:24;;;;;;;10.28;6.10;;;;;;;6.92;57.99;97087.13;1748466;79;25726;-72
2022/12/29 09:18:51;;;;;;;14.07;6.60;;;;;;;6.94;57.76;97090.45;1747125;79;25743;-73
2022/12/29 09:21:18;;;;;;;8.85;5.78;;;;;;;6.99;57.74;97086.69;1732745;79;27385;-73
2022/12/29 09:23:44;;;;;;;10.38;6.30;;;;;;;7.07;57.66;97083.00;1758220;79;25748;-73
2022/12/29 09:26:11;;;;;;;11.43;6.87;;;;;;;7.07;57.57;97085.69;1745443;79;25688;-73
2022/12/29 09:28:38;;;;;;;10.50;6.30;;;;;;;7.07;57.59;97086.52;1776545;79;26287;-72
2022/12/29 09:31:05;;;;;;;10.80;6.28;;;;;;;7.12;57.73;97080.58;1776076;79;25854;-74
2022/12/29 09:33:35;;;;;;;11.22;6.92;;;;;;;7.11;57.67;97066.32;1758379;79;27359;-73
2022/12/29 09:36:03;;;;;;;12.78;7.85;;;;;;;7.13;57.41;97074.14;1765236;79;25617;-73
2022/12/29 09:38:30;;;;;;;11.57;7.08;;;;;;;7.13;57.66;97080.34;1761031;79;26410;-72
2022/12/29 09:41:20;;;;;;;10.70;6.83;;;;;;;7.20;57.47;97069.66;1732491;79;25746;-73
2022/12/29 09:44:11;;;;;;;12.43;7.08;;;;;;;7.21;57.44;97071.33;1686830;82;25846;-73
2022/12/29 09:46:44;;;;;;;12.20;6.40;;;;;;;7.21;57.36;97069.47;1655193;86;27446;-74
2022/12/29 09:49:46;;;;;;;12.25;7.25;;;;;;;7.18;57.48;97063.15;1654291;85;25944;-74
2022/12/29 09:52:29;;;;;;;9.30;6.22;;;;;;;7.22;57.36;97058.22;1669147;85;25734;-74
2022/12/29 09:55:05;;;;;;;11.48;7.05;;;;;;;7.28;57.39;97048.02;1670804;85;25764;-73
2022/12/29 09:57:46;;;;;;;8.73;6.40;;;;;;;7.37;57.31;97043.30;1621589;88;25842;-73
2022/12/29 10:00:18;;;;;;;11.88;6.87;;;;;;;7.52;57.26;97051.53;1559727;89;28089;-74
2022/12/29 10:03:02;;;;;;;11.95;6.90;;;;;;;7.81;57.21;97053.59;1589846;89;25838;-74
2022/12/29 10:05:43;;;;;;;14.30;7.37;;;;;;;7.92;56.63;97056.52;1567797;89;25881;-74
2022/12/29 10:08:41;;;;;;;11.57;6.55;;;;;;;8.22;56.95;97059.66;1584676;89;25717;-75
2022/12/29 10:11:29;;;;;;;11.28;7.53;;;;;;;8.66;56.74;97058.29;1591228;89;25803;-75
2022/12/29 10:14:23;;;;;;;14.93;8.55;;;;;;;8.95;56.32;97053.79;1494492;94;27516;-74
2022/12/29 10:17:04;;;;;;;11.15;7.20;;;;;;;9.13;55.66;97043.73;1489936;96;25623;-74
2022/12/29 10:20:09;;;;;;;15.05;8.20;;;;;;;9.36;55.67;97035.16;1482933;95;25842;-74
2022/12/29 10:23:02;;;;;;;10.72;7.17;;;;;;;9.60;55.39;97030.41;1454896;97;25779;-76
2022/12/29 10:25:34;;;;;;;12.90;8.03;;;;;;;9.97;55.28;97013.10;1470067;97;25613;-74
2022/12/29 10:28:06;;;;;;;16.90;8.55;;;;;;;10.36;54.39;97007.47;1490272;96;27430;-74
2022/12/29 10:30:35;;;;;;;11.53;7.70;;;;;;;10.70;54.85;96999.91;1485760;94;25838;-74
2022/12/29 10:33:12;;;;;;;13.50;7.83;;;;;;;11.09;54.28;97006.27;1488119;96;25882;-74
2022/12/29 10:35:42;;;;;;;12.70;8.20;;;;;;;11.29;53.97;97006.56;1516018;93;26531;-75
2022/12/29 10:38:33;;;;;;;14.65;8.63;;;;;;;11.63;53.51;97003.23;1537306;91;27010;-75
2022/12/29 10:41:17;;;;;;;13.68;7.60;;;;;;;11.84;53.04;97005.47;1557781;89;27443;-74
2022/12/29 10:43:49;;;;;;;12.98;8.48;;;;;;;12.09;52.53;97005.33;1607017;88;25690;-76
2022/12/29 10:46:27;;;;;;;13.57;7.43;;;;;;;12.21;51.57;97010.25;1607318;88;25933;-74
2022/12/29 10:48:53;;;;;;;51.10;28.55;;;;;;;12.45;51.59;97011.13;1598955;89;25889;-74
2022/12/29 10:51:33;;;;;;;26.37;17.17;;;;;;;12.70;51.19;97010.92;1619145;87;25482;-74
2022/12/29 10:54:17;;;;;;;15.55;10.00;;;;;;;12.78;50.77;97021.96;1657016;85;27793;-75
2022/12/29 10:56:50;;;;;;;13.18;8.35;;;;;;;13.05;49.50;97019.59;1672290;83;25976;-74
2022/12/29 10:59:28;;;;;;;12.28;8.05;;;;;;;13.20;50.48;97012.66;1709665;81;25908;-74
2022/12/29 11:02:09;;;;;;;14.47;8.58;;;;;;;13.50;50.55;97012.52;1744532;78;25768;-75
2022/12/29 11:05:05;;;;;;;13.18;8.30;;;;;;;13.62;49.91;97013.84;1792100;78;25708;-75
2022/12/29 11:07:32;;;;;;;12.40;8.30;;;;;;;13.86;49.75;97011.88;1785994;78;27413;-74
2022/12/29 11:10:21;;;;;;;14.00;8.08;;;;;;;14.11;49.76;97014.25;1763288;80;25719;-75
2022/12/29 11:13:01;;;;;;;13.70;8.58;;;;;;;14.25;49.17;97016.96;1763111;80;25236;-76
2022/12/29 11:15:41;;;;;;;12.05;8.50;;;;;;;14.45;48.97;97015.98;1759227;81;26561;-75
2022/12/29 11:18:27;;;;;;;15.68;9.80;;;;;;;14.65;48.59;97008.17;1663124;85;26498;-74
2022/12/29 11:21:04;;;;;;;15.35;9.03;;;;;;;14.62;48.16;97008.66;1631716;87;27414;-75
2022/12/29 11:23:40;;;;;;;15.20;9.55;;;;;;;14.50;47.89;97003.84;1638907;86;25297;-75
2022/12/29 11:26:20;;;;;;;18.67;9.48;;;;;;;14.41;47.70;97005.31;1643801;85;26911;-75
2022/12/29 11:29:12;;;;;;;13.40;8.98;;;;;;;14.29;47.49;97012.67;1644726;85;25831;-74
2022/12/29 11:31:46;;;;;;;14.35;8.80;;;;;;;14.19;47.74;97008.42;1639097;85;25451;-75
2022/12/29 11:34:35;;;;;;;15.75;10.38;;;;;;;14.21;47.51;97005.77;1581960;89;28207;-75
2022/12/29 11:37:15;;;;;;;13.90;8.85;;;;;;;14.13;46.95;97001.27;1569401;89;25802;-76
2022/12/29 11:39:57;;;;;;;14.87;9.80;;;;;;;13.88;46.83;97016.53;1594165;88;25846;-75
2022/12/29 11:42:39;;;;;;;;;;;;;;;13.54;46.82;97017.73;1596244;88;25822;-76
2022/12/29 11:45:25;;;;;;;11.90;8.45;;;;;;;13.23;46.45;97005.95;1592403;88;25964;-75
2022/12/29 11:47:57;;;;;;;14.35;8.88;;;;;;;13.04;47.31;97008.48;1591994;88;27475;-74
2022/12/29 11:50:29;;;;;;;14.28;8.65;;;;;;;12.85;47.17;97008.59;1541261;91;25413;-77
2022/12/29 11:53:03;;;;;;;15.97;8.80;;;;;;;12.62;47.25;97001.80;1538780;91;25881;-74
2022/12/29 11:55:31;;;;;;;13.98;8.45;;;;;;;12.49;47.55;97001.49;1590780;88;26456;-77
2022/12/29 11:58:02;;;;;;;14.33;8.33;;;;;;;12.47;47.84;97002.25;1627194;88;26494;-75
2022/12/29 12:00:33;;;;;;;14.43;8.60;;;;;;;12.44;47.85;97000.00;1627615;88;27401;-75
2022/12/29 12:03:14;;;;;;;15.68;8.80;;;;;;;12.47;47.96;96996.01;1627747;88;25737;-74
2022/12/29 12:05:58;;;;;;;12.45;8.40;;;;;;;12.48;47.99;96994.95;1555397;91;25857;-74
2022/12/29 12:08:35;;;;;;;12.30;7.72;;;;;;;12.45;47.81;96995.41;1558438;92;25778;-74
2022/12/29 12:11:23;;;;;;;13.80;8.13;;;;;;;12.38;48.07;96994.18;1595042;89;25843;-72
2022/12/29 12:14:06;;;;;;;13.20;8.25;;;;;;;12.35;47.98;96994.63;1604666;88;28635;-73
2022/12/29 12:16:50;;;;;;;11.75;7.47;;;;;;;12.29;47.99;96996.94;1608222;88;25963;-74
2022/12/29 12:19:33;;;;;;;13.28;8.53;;;;;;;12.18;48.06;96989.61;1608175;88;25329;-75
2022/12/29 12:22:22;;;;;;;12.58;7.87;;;;;;;12.14;48.06;96983.00;1589014;88;25842;-76
2022/12/29 12:25:12;;;;;;;11.20;7.37;;;;;;;12.13;48.04;96980.00;1589148;88;25791;-74
2022/12/29 12:27:57;;;;;;;14.18;7.90;;;;;;;12.15;48.15;96979.25;1560667;90;27428;-74
2022/12/29 12:30:29;;;;;;;14.80;7.70;;;;;;;12.07;48.21;96979.06;1521875;93;25862;-74
2022/12/29 12:33:31;;;;;;;13.77;8.70;;;;;;;11.95;48.01;96980.91;1543286;91;25803;-73
2022/12/29 12:36:35;;;;;;;15.05;8.85;;;;;;;11.74;48.23;96954.31;1543719;91;25965;-75